sensor_id;sensor_type;location;lat;lon;timestamp;temperature;humidity
7002;DHT22;3541;53.230;10.518;2023-04-03T00:01:01;4.40;99.90
7002;DHT22;3541;53.230;10.518;2023-04-03T00:03:28;4.40;99.90
7002;DHT22;3541;53.230;10.518;2023-04-03T00:05:54;4.40;99.90
7002;DHT22;3541;53.230;10.518;2023-04-03T00:08:22;4.40;99.90
7002;DHT22;3541;53.230;10.518;2023-04-03T00:10:49;4.40;99.90
7002;DHT22;3541;53.230;10.518;2023-04-03T00:13:15;4.40;99.90
7002;DHT22;3541;53.230;10.518;2023-04-03T00:15:42;4.30;99.90
7002;DHT22;3541;53.230;10.518;2023-04-03T00:18:09;4.20;99.90
7002;DHT22;3541;53.230;10.518;2023-04-03T00:20:36;4.20;99.90
7002;DHT22;3541;53.230;10.518;2023-04-03T00:23:02;4.30;99.90
7002;DHT22;3541;53.230;10.518;2023-04-03T00:25:30;4.20;99.90
7002;DHT22;3541;53.230;10.518;2023-04-03T00:27:57;4.20;99.90
7002;DHT22;3541;53.230;10.518;2023-04-03T00:30:24;4.10;99.90
7002;DHT22;3541;53.230;10.518;2023-04-03T00:32:52;4.10;99.90
7002;DHT22;3541;53.230;10.518;2023-04-03T00:35:20;4.10;99.90
7002;DHT22;3541;53.230;10.518;2023-04-03T00:37:47;4.10;99.90
7002;DHT22;3541;53.230;10.518;2023-04-03T00:40:15;4.10;99.90
7002;DHT22;3541;53.230;10.518;2023-04-03T00:42:45;4.20;99.90
7002;DHT22;3541;53.230;10.518;2023-04-03T00:45:29;4.20;99.90
7002;DHT22;3541;53.230;10.518;2023-04-03T00:47:56;4.20;99.90
7002;DHT22;3541;53.230;10.518;2023-04-03T00:50:25;4.20;99.90
7002;DHT22;3541;53.230;10.518;2023-04-03T00:52:52;4.00;99.90
7002;DHT22;3541;53.230;10.518;2023-04-03T00:55:19;4.00;99.90
7002;DHT22;3541;53.230;10.518;2023-04-03T00:57:48;4.10;99.90
7002;DHT22;3541;53.230;10.518;2023-04-03T01:00:18;4.00;99.90
7002;DHT22;3541;53.230;10.518;2023-04-03T01:02:45;3.90;99.90
7002;DHT22;3541;53.230;10.518;2023-04-03T01:05:12;3.90;99.90
7002;DHT22;3541;53.230;10.518;2023-04-03T01:07:40;3.90;99.90
7002;DHT22;3541;53.230;10.518;2023-04-03T01:10:09;4.00;99.90
7002;DHT22;3541;53.230;10.518;2023-04-03T01:12:38;3.90;99.90
7002;DHT22;3541;53.230;10.518;2023-04-03T01:15:09;3.90;99.90
7002;DHT22;3541;53.230;10.518;2023-04-03T01:17:38;3.80;99.90
7002;DHT22;3541;53.230;10.518;2023-04-03T01:20:34;3.80;99.90
7002;DHT22;3541;53.230;10.518;2023-04-03T01:23:10;3.70;99.90
7002;DHT22;3541;53.230;10.518;2023-04-03T01:25:42;3.60;99.90
7002;DHT22;3541;53.230;10.518;2023-04-03T01:28:12;3.60;99.90
7002;DHT22;3541;53.230;10.518;2023-04-03T01:30:44;3.60;99.90
7002;DHT22;3541;53.230;10.518;2023-04-03T01:33:13;3.60;99.90
7002;DHT22;3541;53.230;10.518;2023-04-03T01:35:40;3.60;99.90
7002;DHT22;3541;53.230;10.518;2023-04-03T01:38:06;3.50;99.90
7002;DHT22;3541;53.230;10.518;2023-04-03T01:40:33;3.60;99.90
7002;DHT22;3541;53.230;10.518;2023-04-03T01:42:59;3.60;99.90
7002;DHT22;3541;53.230;10.518;2023-04-03T01:45:26;3.50;99.90
7002;DHT22;3541;53.230;10.518;2023-04-03T01:47:52;3.60;99.90
7002;DHT22;3541;53.230;10.518;2023-04-03T01:50:20;3.50;99.90
7002;DHT22;3541;53.230;10.518;2023-04-03T01:52:47;3.50;99.90
7002;DHT22;3541;53.230;10.518;2023-04-03T01:55:14;3.50;99.90
7002;DHT22;3541;53.230;10.518;2023-04-03T01:57:40;3.60;99.90
7002;DHT22;3541;53.230;10.518;2023-04-03T02:00:08;3.60;99.90
7002;DHT22;3541;53.230;10.518;2023-04-03T02:02:35;3.50;99.90
7002;DHT22;3541;53.230;10.518;2023-04-03T02:05:01;3.50;99.90
7002;DHT22;3541;53.230;10.518;2023-04-03T02:07:29;3.50;99.90
7002;DHT22;3541;53.230;10.518;2023-04-03T02:09:56;3.50;99.90
7002;DHT22;3541;53.230;10.518;2023-04-03T02:12:22;3.40;99.90
7002;DHT22;3541;53.230;10.518;2023-04-03T02:14:49;3.40;99.90
7002;DHT22;3541;53.230;10.518;2023-04-03T02:17:15;3.40;99.90
7002;DHT22;3541;53.230;10.518;2023-04-03T02:19:42;3.40;99.90
7002;DHT22;3541;53.230;10.518;2023-04-03T02:22:08;3.40;99.90
7002;DHT22;3541;53.230;10.518;2023-04-03T02:24:36;3.40;99.90
7002;DHT22;3541;53.230;10.518;2023-04-03T02:27:04;3.40;99.90
7002;DHT22;3541;53.230;10.518;2023-04-03T02:29:31;3.30;99.90
7002;DHT22;3541;53.230;10.518;2023-04-03T02:31:58;3.30;99.90
7002;DHT22;3541;53.230;10.518;2023-04-03T02:34:24;3.30;99.90
7002;DHT22;3541;53.230;10.518;2023-04-03T02:36:51;3.40;99.90
7002;DHT22;3541;53.230;10.518;2023-04-03T02:39:17;3.30;99.90
7002;DHT22;3541;53.230;10.518;2023-04-03T02:41:45;3.30;99.90
7002;DHT22;3541;53.230;10.518;2023-04-03T02:44:12;3.30;99.90
7002;DHT22;3541;53.230;10.518;2023-04-03T02:46:39;3.20;99.90
7002;DHT22;3541;53.230;10.518;2023-04-03T02:49:05;3.20;99.90
7002;DHT22;3541;53.230;10.518;2023-04-03T02:51:32;3.20;99.90
7002;DHT22;3541;53.230;10.518;2023-04-03T02:53:59;3.10;99.90
7002;DHT22;3541;53.230;10.518;2023-04-03T02:56:26;3.20;99.90
7002;DHT22;3541;53.230;10.518;2023-04-03T02:58:54;3.10;99.90
7002;DHT22;3541;53.230;10.518;2023-04-03T03:01:20;3.20;99.90
7002;DHT22;3541;53.230;10.518;2023-04-03T03:03:47;3.10;99.90
7002;DHT22;3541;53.230;10.518;2023-04-03T03:06:17;3.10;99.90
7002;DHT22;3541;53.230;10.518;2023-04-03T03:08:44;3.10;99.90
7002;DHT22;3541;53.230;10.518;2023-04-03T03:11:11;3.00;99.90
7002;DHT22;3541;53.230;10.518;2023-04-03T03:13:38;3.10;99.90
7002;DHT22;3541;53.230;10.518;2023-04-03T03:16:06;3.00;99.90
7002;DHT22;3541;53.230;10.518;2023-04-03T03:18:33;3.00;99.90
7002;DHT22;3541;53.230;10.518;2023-04-03T03:21:02;3.00;99.90
7002;DHT22;3541;53.230;10.518;2023-04-03T03:23:30;3.00;99.90
7002;DHT22;3541;53.230;10.518;2023-04-03T03:25:58;3.00;99.90
7002;DHT22;3541;53.230;10.518;2023-04-03T03:28:25;3.00;99.90
7002;DHT22;3541;53.230;10.518;2023-04-03T03:30:52;3.00;99.90
7002;DHT22;3541;53.230;10.518;2023-04-03T03:33:20;3.00;99.90
7002;DHT22;3541;53.230;10.518;2023-04-03T03:35:47;3.00;99.90
7002;DHT22;3541;53.230;10.518;2023-04-03T03:38:13;3.00;99.90
7002;DHT22;3541;53.230;10.518;2023-04-03T03:40:40;2.90;99.90
7002;DHT22;3541;53.230;10.518;2023-04-03T03:43:06;2.90;99.90
7002;DHT22;3541;53.230;10.518;2023-04-03T03:45:33;2.90;99.90
7002;DHT22;3541;53.230;10.518;2023-04-03T03:48:00;2.90;99.90
7002;DHT22;3541;53.230;10.518;2023-04-03T03:50:28;2.90;99.90
7002;DHT22;3541;53.230;10.518;2023-04-03T03:52:55;2.90;99.90
7002;DHT22;3541;53.230;10.518;2023-04-03T03:55:21;2.80;99.90
7002;DHT22;3541;53.230;10.518;2023-04-03T03:57:48;2.90;99.90
7002;DHT22;3541;53.230;10.518;2023-04-03T04:00:15;2.80;99.90
7002;DHT22;3541;53.230;10.518;2023-04-03T04:02:42;2.80;99.90
7002;DHT22;3541;53.230;10.518;2023-04-03T04:05:08;2.70;99.90
7002;DHT22;3541;53.230;10.518;2023-04-03T04:07:36;2.80;99.90
7002;DHT22;3541;53.230;10.518;2023-04-03T04:10:04;2.70;99.90
7002;DHT22;3541;53.230;10.518;2023-04-03T04:12:31;2.70;99.90
7002;DHT22;3541;53.230;10.518;2023-04-03T04:14:57;2.70;99.90
7002;DHT22;3541;53.230;10.518;2023-04-03T04:17:24;2.70;99.90
7002;DHT22;3541;53.230;10.518;2023-04-03T04:19:50;2.70;99.90
7002;DHT22;3541;53.230;10.518;2023-04-03T04:22:17;2.60;99.90
7002;DHT22;3541;53.230;10.518;2023-04-03T04:24:45;2.60;99.90
7002;DHT22;3541;53.230;10.518;2023-04-03T04:27:11;2.70;99.90
7002;DHT22;3541;53.230;10.518;2023-04-03T04:29:38;2.60;99.90
7002;DHT22;3541;53.230;10.518;2023-04-03T04:32:04;2.70;99.90
7002;DHT22;3541;53.230;10.518;2023-04-03T04:34:31;2.70;99.90
7002;DHT22;3541;53.230;10.518;2023-04-03T04:36:58;2.60;99.90
7002;DHT22;3541;53.230;10.518;2023-04-03T04:39:24;2.60;99.90
7002;DHT22;3541;53.230;10.518;2023-04-03T04:41:52;2.60;99.90
7002;DHT22;3541;53.230;10.518;2023-04-03T04:44:19;2.50;99.90
7002;DHT22;3541;53.230;10.518;2023-04-03T04:46:46;2.50;99.90
7002;DHT22;3541;53.230;10.518;2023-04-03T04:49:12;2.60;99.90
7002;DHT22;3541;53.230;10.518;2023-04-03T04:51:39;2.60;99.90
7002;DHT22;3541;53.230;10.518;2023-04-03T04:54:06;2.60;99.90
7002;DHT22;3541;53.230;10.518;2023-04-03T04:56:32;2.60;99.90
7002;DHT22;3541;53.230;10.518;2023-04-03T04:59:01;2.60;99.90
7002;DHT22;3541;53.230;10.518;2023-04-03T05:01:27;2.60;99.90
7002;DHT22;3541;53.230;10.518;2023-04-03T05:03:54;2.70;99.90
7002;DHT22;3541;53.230;10.518;2023-04-03T05:06:21;2.70;99.90
7002;DHT22;3541;53.230;10.518;2023-04-03T05:08:47;2.60;99.90
7002;DHT22;3541;53.230;10.518;2023-04-03T05:11:14;2.60;99.90
7002;DHT22;3541;53.230;10.518;2023-04-03T05:13:40;2.60;99.90
7002;DHT22;3541;53.230;10.518;2023-04-03T05:16:08;2.60;99.90
7002;DHT22;3541;53.230;10.518;2023-04-03T05:18:35;2.60;99.90
7002;DHT22;3541;53.230;10.518;2023-04-03T05:21:01;2.70;99.90
7002;DHT22;3541;53.230;10.518;2023-04-03T05:23:28;2.70;99.90
7002;DHT22;3541;53.230;10.518;2023-04-03T05:25:55;2.70;99.90
7002;DHT22;3541;53.230;10.518;2023-04-03T05:28:21;2.70;99.90
7002;DHT22;3541;53.230;10.518;2023-04-03T05:30:52;2.70;99.90
7002;DHT22;3541;53.230;10.518;2023-04-03T05:33:21;2.70;99.90
7002;DHT22;3541;53.230;10.518;2023-04-03T05:35:47;2.70;99.90
7002;DHT22;3541;53.230;10.518;2023-04-03T05:38:14;2.70;99.90
7002;DHT22;3541;53.230;10.518;2023-04-03T05:40:42;2.70;99.90
7002;DHT22;3541;53.230;10.518;2023-04-03T05:43:08;2.70;99.90
7002;DHT22;3541;53.230;10.518;2023-04-03T05:45:35;2.70;99.90
7002;DHT22;3541;53.230;10.518;2023-04-03T05:48:01;2.70;99.90
7002;DHT22;3541;53.230;10.518;2023-04-03T05:50:29;2.70;99.90
7002;DHT22;3541;53.230;10.518;2023-04-03T05:52:57;2.70;99.90
7002;DHT22;3541;53.230;10.518;2023-04-03T05:55:24;2.80;99.90
7002;DHT22;3541;53.230;10.518;2023-04-03T05:57:51;2.90;99.90
7002;DHT22;3541;53.230;10.518;2023-04-03T06:00:18;2.90;99.90
7002;DHT22;3541;53.230;10.518;2023-04-03T06:02:45;2.90;99.90
7002;DHT22;3541;53.230;10.518;2023-04-03T06:05:11;3.00;99.90
7002;DHT22;3541;53.230;10.518;2023-04-03T06:07:39;3.00;99.90
7002;DHT22;3541;53.230;10.518;2023-04-03T06:10:07;3.00;99.90
7002;DHT22;3541;53.230;10.518;2023-04-03T06:12:34;3.00;99.90
7002;DHT22;3541;53.230;10.518;2023-04-03T06:15:00;3.00;99.90
7002;DHT22;3541;53.230;10.518;2023-04-03T06:17:27;3.00;99.90
7002;DHT22;3541;53.230;10.518;2023-04-03T06:19:55;3.10;99.90
7002;DHT22;3541;53.230;10.518;2023-04-03T06:22:23;3.10;99.90
7002;DHT22;3541;53.230;10.518;2023-04-03T06:24:52;3.10;99.90
7002;DHT22;3541;53.230;10.518;2023-04-03T06:27:18;3.10;99.90
7002;DHT22;3541;53.230;10.518;2023-04-03T06:29:45;3.10;99.90
7002;DHT22;3541;53.230;10.518;2023-04-03T06:32:12;3.20;99.90
7002;DHT22;3541;53.230;10.518;2023-04-03T06:34:38;3.20;99.90
7002;DHT22;3541;53.230;10.518;2023-04-03T06:37:05;3.30;99.90
7002;DHT22;3541;53.230;10.518;2023-04-03T06:39:32;3.30;99.90
7002;DHT22;3541;53.230;10.518;2023-04-03T06:42:00;3.30;99.90
7002;DHT22;3541;53.230;10.518;2023-04-03T06:44:26;3.40;99.90
7002;DHT22;3541;53.230;10.518;2023-04-03T06:46:53;3.40;99.90
7002;DHT22;3541;53.230;10.518;2023-04-03T06:49:20;3.50;99.90
7002;DHT22;3541;53.230;10.518;2023-04-03T06:51:46;3.50;99.90
7002;DHT22;3541;53.230;10.518;2023-04-03T06:54:13;3.60;99.90
7002;DHT22;3541;53.230;10.518;2023-04-03T06:56:40;3.60;99.90
7002;DHT22;3541;53.230;10.518;2023-04-03T06:59:09;3.70;99.90
7002;DHT22;3541;53.230;10.518;2023-04-03T07:01:36;3.80;99.90
7002;DHT22;3541;53.230;10.518;2023-04-03T07:04:03;3.90;99.90
7002;DHT22;3541;53.230;10.518;2023-04-03T07:06:29;3.80;99.90
7002;DHT22;3541;53.230;10.518;2023-04-03T07:08:57;3.90;99.90
7002;DHT22;3541;53.230;10.518;2023-04-03T07:11:24;4.00;99.90
7002;DHT22;3541;53.230;10.518;2023-04-03T07:13:52;4.00;99.90
7002;DHT22;3541;53.230;10.518;2023-04-03T07:16:20;4.10;99.90
7002;DHT22;3541;53.230;10.518;2023-04-03T07:18:47;4.20;99.90
7002;DHT22;3541;53.230;10.518;2023-04-03T07:21:13;4.30;99.90
7002;DHT22;3541;53.230;10.518;2023-04-03T07:23:40;4.30;99.90
7002;DHT22;3541;53.230;10.518;2023-04-03T07:26:06;4.30;99.90
7002;DHT22;3541;53.230;10.518;2023-04-03T07:28:33;4.30;99.90
7002;DHT22;3541;53.230;10.518;2023-04-03T07:31:03;4.40;99.90
7002;DHT22;3541;53.230;10.518;2023-04-03T07:33:32;4.40;99.90
7002;DHT22;3541;53.230;10.518;2023-04-03T07:36:00;4.40;99.90
7002;DHT22;3541;53.230;10.518;2023-04-03T07:38:26;4.50;99.90
7002;DHT22;3541;53.230;10.518;2023-04-03T07:40:53;4.40;99.90
7002;DHT22;3541;53.230;10.518;2023-04-03T07:43:21;4.30;99.90
7002;DHT22;3541;53.230;10.518;2023-04-03T07:45:48;4.40;99.90
7002;DHT22;3541;53.230;10.518;2023-04-03T07:48:17;4.40;99.90
7002;DHT22;3541;53.230;10.518;2023-04-03T07:50:45;4.50;99.90
7002;DHT22;3541;53.230;10.518;2023-04-03T07:53:12;4.50;99.90
7002;DHT22;3541;53.230;10.518;2023-04-03T07:55:39;4.50;99.90
7002;DHT22;3541;53.230;10.518;2023-04-03T07:58:08;4.60;99.90
7002;DHT22;3541;53.230;10.518;2023-04-03T08:00:35;4.70;99.90
7002;DHT22;3541;53.230;10.518;2023-04-03T08:03:01;4.90;99.90
7002;DHT22;3541;53.230;10.518;2023-04-03T08:05:28;4.90;99.90
7002;DHT22;3541;53.230;10.518;2023-04-03T08:07:56;4.80;99.90
7002;DHT22;3541;53.230;10.518;2023-04-03T08:10:23;4.80;99.90
7002;DHT22;3541;53.230;10.518;2023-04-03T08:12:49;4.90;99.90
7002;DHT22;3541;53.230;10.518;2023-04-03T08:15:17;5.10;99.90
7002;DHT22;3541;53.230;10.518;2023-04-03T08:17:43;5.00;99.90
7002;DHT22;3541;53.230;10.518;2023-04-03T08:20:11;5.10;99.90
7002;DHT22;3541;53.230;10.518;2023-04-03T08:22:38;5.10;99.90
7002;DHT22;3541;53.230;10.518;2023-04-03T08:25:06;5.20;99.90
7002;DHT22;3541;53.230;10.518;2023-04-03T08:27:33;5.30;99.90
7002;DHT22;3541;53.230;10.518;2023-04-03T08:30:00;5.40;99.90
7002;DHT22;3541;53.230;10.518;2023-04-03T08:32:27;5.40;99.90
7002;DHT22;3541;53.230;10.518;2023-04-03T08:34:53;5.40;99.90
7002;DHT22;3541;53.230;10.518;2023-04-03T08:37:20;5.50;99.90
7002;DHT22;3541;53.230;10.518;2023-04-03T08:39:46;5.60;99.90
7002;DHT22;3541;53.230;10.518;2023-04-03T08:42:19;5.60;99.90
7002;DHT22;3541;53.230;10.518;2023-04-03T08:44:57;5.60;99.90
7002;DHT22;3541;53.230;10.518;2023-04-03T08:47:38;5.60;99.90
7002;DHT22;3541;53.230;10.518;2023-04-03T08:50:10;5.70;99.90
7002;DHT22;3541;53.230;10.518;2023-04-03T08:52:40;5.90;99.90
7002;DHT22;3541;53.230;10.518;2023-04-03T08:55:16;6.10;99.90
7002;DHT22;3541;53.230;10.518;2023-04-03T08:57:47;6.00;99.90
7002;DHT22;3541;53.230;10.518;2023-04-03T09:00:18;6.00;99.90
7002;DHT22;3541;53.230;10.518;2023-04-03T09:02:47;6.10;99.90
7002;DHT22;3541;53.230;10.518;2023-04-03T09:05:16;6.20;99.90
7002;DHT22;3541;53.230;10.518;2023-04-03T09:07:45;6.20;99.90
7002;DHT22;3541;53.230;10.518;2023-04-03T09:10:14;6.20;99.90
7002;DHT22;3541;53.230;10.518;2023-04-03T09:12:43;6.30;99.90
7002;DHT22;3541;53.230;10.518;2023-04-03T09:15:18;6.50;99.90
7002;DHT22;3541;53.230;10.518;2023-04-03T09:17:53;6.50;99.90
7002;DHT22;3541;53.230;10.518;2023-04-03T09:20:31;6.50;99.90
7002;DHT22;3541;53.230;10.518;2023-04-03T09:23:09;6.60;99.90
7002;DHT22;3541;53.230;10.518;2023-04-03T09:25:39;6.60;99.90
7002;DHT22;3541;53.230;10.518;2023-04-03T09:28:05;6.70;99.90
7002;DHT22;3541;53.230;10.518;2023-04-03T09:30:36;6.80;99.90
7002;DHT22;3541;53.230;10.518;2023-04-03T09:33:03;6.80;99.90
7002;DHT22;3541;53.230;10.518;2023-04-03T09:35:32;6.90;99.90
7002;DHT22;3541;53.230;10.518;2023-04-03T09:38:00;6.90;99.90
7002;DHT22;3541;53.230;10.518;2023-04-03T09:40:30;6.90;99.90
7002;DHT22;3541;53.230;10.518;2023-04-03T09:42:58;7.00;99.90
7002;DHT22;3541;53.230;10.518;2023-04-03T09:45:26;7.10;99.90
7002;DHT22;3541;53.230;10.518;2023-04-03T09:48:06;7.20;99.90
7002;DHT22;3541;53.230;10.518;2023-04-03T09:50:34;7.20;99.90
7002;DHT22;3541;53.230;10.518;2023-04-03T09:53:05;7.30;99.90
7002;DHT22;3541;53.230;10.518;2023-04-03T09:55:33;7.40;99.90
7002;DHT22;3541;53.230;10.518;2023-04-03T09:58:23;7.50;99.90
7002;DHT22;3541;53.230;10.518;2023-04-03T10:00:54;7.50;99.90
7002;DHT22;3541;53.230;10.518;2023-04-03T10:03:27;7.60;99.90
7002;DHT22;3541;53.230;10.518;2023-04-03T10:05:54;7.70;99.90
7002;DHT22;3541;53.230;10.518;2023-04-03T10:08:26;7.90;99.90
7002;DHT22;3541;53.230;10.518;2023-04-03T10:11:13;7.70;99.90
7002;DHT22;3541;53.230;10.518;2023-04-03T10:13:52;7.80;99.90
7002;DHT22;3541;53.230;10.518;2023-04-03T10:16:22;7.70;99.90
7002;DHT22;3541;53.230;10.518;2023-04-03T10:19:03;7.70;99.90
7002;DHT22;3541;53.230;10.518;2023-04-03T10:21:38;7.80;99.90
7002;DHT22;3541;53.230;10.518;2023-04-03T10:24:11;7.90;99.90
7002;DHT22;3541;53.230;10.518;2023-04-03T10:26:46;8.10;99.90
7002;DHT22;3541;53.230;10.518;2023-04-03T10:29:27;8.10;99.90
7002;DHT22;3541;53.230;10.518;2023-04-03T10:32:01;8.00;99.90
7002;DHT22;3541;53.230;10.518;2023-04-03T10:34:32;7.90;99.90
7002;DHT22;3541;53.230;10.518;2023-04-03T10:37:06;8.10;99.90
7002;DHT22;3541;53.230;10.518;2023-04-03T10:39:43;8.10;99.90
7002;DHT22;3541;53.230;10.518;2023-04-03T10:42:17;8.00;99.90
7002;DHT22;3541;53.230;10.518;2023-04-03T10:44:52;8.20;99.90
7002;DHT22;3541;53.230;10.518;2023-04-03T10:47:27;8.30;99.90
7002;DHT22;3541;53.230;10.518;2023-04-03T10:50:20;8.10;99.90
7002;DHT22;3541;53.230;10.518;2023-04-03T10:52:54;7.90;99.90
7002;DHT22;3541;53.230;10.518;2023-04-03T10:55:31;7.80;99.90
7002;DHT22;3541;53.230;10.518;2023-04-03T10:58:01;7.60;99.90
7002;DHT22;3541;53.230;10.518;2023-04-03T11:00:35;7.50;99.90
7002;DHT22;3541;53.230;10.518;2023-04-03T11:03:05;7.40;99.90
7002;DHT22;3541;53.230;10.518;2023-04-03T11:05:37;7.30;99.90
7002;DHT22;3541;53.230;10.518;2023-04-03T11:08:13;7.30;99.90
7002;DHT22;3541;53.230;10.518;2023-04-03T11:10:43;7.60;99.90
7002;DHT22;3541;53.230;10.518;2023-04-03T11:13:12;7.80;99.90
7002;DHT22;3541;53.230;10.518;2023-04-03T11:15:40;8.10;99.90
7002;DHT22;3541;53.230;10.518;2023-04-03T11:18:10;8.20;99.90
7002;DHT22;3541;53.230;10.518;2023-04-03T11:20:44;8.10;99.90
7002;DHT22;3541;53.230;10.518;2023-04-03T11:23:21;8.00;99.90
7002;DHT22;3541;53.230;10.518;2023-04-03T11:25:51;7.80;99.90
7002;DHT22;3541;53.230;10.518;2023-04-03T11:28:19;7.70;99.90
7002;DHT22;3541;53.230;10.518;2023-04-03T11:30:50;7.80;99.90
7002;DHT22;3541;53.230;10.518;2023-04-03T11:33:24;8.00;99.90
7002;DHT22;3541;53.230;10.518;2023-04-03T11:35:59;8.40;99.90
7002;DHT22;3541;53.230;10.518;2023-04-03T11:38:30;8.80;99.90
7002;DHT22;3541;53.230;10.518;2023-04-03T11:41:02;9.10;99.90
7002;DHT22;3541;53.230;10.518;2023-04-03T11:43:30;9.30;99.90
7002;DHT22;3541;53.230;10.518;2023-04-03T11:46:00;9.20;99.90
7002;DHT22;3541;53.230;10.518;2023-04-03T11:48:49;9.30;99.90
7002;DHT22;3541;53.230;10.518;2023-04-03T11:51:51;9.30;99.90
7002;DHT22;3541;53.230;10.518;2023-04-03T11:54:46;9.50;99.90
7002;DHT22;3541;53.230;10.518;2023-04-03T11:57:46;9.50;99.90
7002;DHT22;3541;53.230;10.518;2023-04-03T12:09:28;9.00;99.90
7002;DHT22;3541;53.230;10.518;2023-04-03T12:11:57;8.90;99.90
7002;DHT22;3541;53.230;10.518;2023-04-03T12:14:25;8.60;99.90
7002;DHT22;3541;53.230;10.518;2023-04-03T12:16:54;8.40;99.90
7002;DHT22;3541;53.230;10.518;2023-04-03T12:19:34;8.30;99.90
7002;DHT22;3541;53.230;10.518;2023-04-03T12:22:07;8.50;99.90
7002;DHT22;3541;53.230;10.518;2023-04-03T12:24:38;9.00;99.90
7002;DHT22;3541;53.230;10.518;2023-04-03T12:27:17;9.10;99.90
7002;DHT22;3541;53.230;10.518;2023-04-03T12:29:47;8.80;99.90
7002;DHT22;3541;53.230;10.518;2023-04-03T12:32:26;8.70;99.90
7002;DHT22;3541;53.230;10.518;2023-04-03T12:35:10;8.70;99.90
7002;DHT22;3541;53.230;10.518;2023-04-03T12:38:18;9.00;99.90
7002;DHT22;3541;53.230;10.518;2023-04-03T12:40:54;9.40;99.90
7002;DHT22;3541;53.230;10.518;2023-04-03T12:43:32;9.80;99.90
7002;DHT22;3541;53.230;10.518;2023-04-03T12:46:03;9.70;99.90
7002;DHT22;3541;53.230;10.518;2023-04-03T12:48:32;9.50;99.90
7002;DHT22;3541;53.230;10.518;2023-04-03T12:51:00;9.40;99.90
7002;DHT22;3541;53.230;10.518;2023-04-03T12:53:31;9.10;99.90
7002;DHT22;3541;53.230;10.518;2023-04-03T12:56:20;9.00;99.90
7002;DHT22;3541;53.230;10.518;2023-04-03T12:58:47;8.80;99.90
7002;DHT22;3541;53.230;10.518;2023-04-03T13:01:15;8.80;99.90
7002;DHT22;3541;53.230;10.518;2023-04-03T13:03:45;8.90;99.90
7002;DHT22;3541;53.230;10.518;2023-04-03T13:06:17;9.00;99.90
7002;DHT22;3541;53.230;10.518;2023-04-03T13:08:49;8.80;99.90
7002;DHT22;3541;53.230;10.518;2023-04-03T13:11:18;8.60;99.90
7002;DHT22;3541;53.230;10.518;2023-04-03T13:13:57;8.40;99.90
7002;DHT22;3541;53.230;10.518;2023-04-03T13:16:24;8.60;99.90
7002;DHT22;3541;53.230;10.518;2023-04-03T13:18:52;9.10;99.90
7002;DHT22;3541;53.230;10.518;2023-04-03T13:21:22;9.40;99.90
7002;DHT22;3541;53.230;10.518;2023-04-03T13:23:52;9.40;99.90
7002;DHT22;3541;53.230;10.518;2023-04-03T13:26:23;9.40;99.90
7002;DHT22;3541;53.230;10.518;2023-04-03T13:28:51;9.40;99.90
7002;DHT22;3541;53.230;10.518;2023-04-03T13:31:22;9.20;99.90
7002;DHT22;3541;53.230;10.518;2023-04-03T13:33:56;9.00;99.90
7002;DHT22;3541;53.230;10.518;2023-04-03T13:36:26;9.00;99.90
7002;DHT22;3541;53.230;10.518;2023-04-03T13:39:05;8.90;99.90
7002;DHT22;3541;53.230;10.518;2023-04-03T13:41:36;9.40;99.90
7002;DHT22;3541;53.230;10.518;2023-04-03T13:44:28;9.50;99.90
7002;DHT22;3541;53.230;10.518;2023-04-03T13:46:57;9.80;99.90
7002;DHT22;3541;53.230;10.518;2023-04-03T13:49:30;10.20;99.90
7002;DHT22;3541;53.230;10.518;2023-04-03T13:51:58;10.50;99.90
7002;DHT22;3541;53.230;10.518;2023-04-03T13:54:29;10.20;99.90
7002;DHT22;3541;53.230;10.518;2023-04-03T13:56:58;9.80;99.90
7002;DHT22;3541;53.230;10.518;2023-04-03T13:59:28;9.70;99.90
7002;DHT22;3541;53.230;10.518;2023-04-03T14:02:10;9.40;99.90
7002;DHT22;3541;53.230;10.518;2023-04-03T14:04:47;9.60;99.90
7002;DHT22;3541;53.230;10.518;2023-04-03T14:07:16;10.10;99.90
7002;DHT22;3541;53.230;10.518;2023-04-03T14:09:43;10.60;99.90
7002;DHT22;3541;53.230;10.518;2023-04-03T14:12:16;10.60;99.90
7002;DHT22;3541;53.230;10.518;2023-04-03T14:14:43;10.20;99.90
7002;DHT22;3541;53.230;10.518;2023-04-03T14:17:14;10.30;99.90
7002;DHT22;3541;53.230;10.518;2023-04-03T14:19:41;10.70;99.90
7002;DHT22;3541;53.230;10.518;2023-04-03T14:22:14;10.90;99.90
7002;DHT22;3541;53.230;10.518;2023-04-03T14:24:41;11.00;99.90
7002;DHT22;3541;53.230;10.518;2023-04-03T14:27:16;11.10;99.90
7002;DHT22;3541;53.230;10.518;2023-04-03T14:29:44;11.30;99.90
7002;DHT22;3541;53.230;10.518;2023-04-03T14:32:11;11.00;99.50
7002;DHT22;3541;53.230;10.518;2023-04-03T14:34:38;10.80;99.90
7002;DHT22;3541;53.230;10.518;2023-04-03T14:37:05;10.70;99.90
7002;DHT22;3541;53.230;10.518;2023-04-03T14:39:31;10.50;99.40
7002;DHT22;3541;53.230;10.518;2023-04-03T14:41:58;10.20;99.90
7002;DHT22;3541;53.230;10.518;2023-04-03T14:44:26;10.00;99.90
7002;DHT22;3541;53.230;10.518;2023-04-03T14:46:53;10.50;99.90
7002;DHT22;3541;53.230;10.518;2023-04-03T14:49:24;10.80;99.90
7002;DHT22;3541;53.230;10.518;2023-04-03T14:51:51;11.20;99.10
7002;DHT22;3541;53.230;10.518;2023-04-03T14:54:21;11.30;97.80
7002;DHT22;3541;53.230;10.518;2023-04-03T14:56:51;11.40;98.70
7002;DHT22;3541;53.230;10.518;2023-04-03T14:59:17;11.50;98.40
7002;DHT22;3541;53.230;10.518;2023-04-03T15:01:48;11.30;97.60
7002;DHT22;3541;53.230;10.518;2023-04-03T15:04:16;10.90;97.70
7002;DHT22;3541;53.230;10.518;2023-04-03T15:06:43;10.60;98.30
7002;DHT22;3541;53.230;10.518;2023-04-03T15:09:18;10.60;98.50
7002;DHT22;3541;53.230;10.518;2023-04-03T15:11:46;10.80;98.50
7002;DHT22;3541;53.230;10.518;2023-04-03T15:14:13;11.00;96.60
7002;DHT22;3541;53.230;10.518;2023-04-03T15:16:40;11.40;96.80
7002;DHT22;3541;53.230;10.518;2023-04-03T15:19:08;11.60;96.70
7002;DHT22;3541;53.230;10.518;2023-04-03T15:21:35;11.70;95.40
7002;DHT22;3541;53.230;10.518;2023-04-03T15:24:01;11.70;95.40
7002;DHT22;3541;53.230;10.518;2023-04-03T15:26:28;11.90;95.30
7002;DHT22;3541;53.230;10.518;2023-04-03T15:28:55;12.00;95.20
7002;DHT22;3541;53.230;10.518;2023-04-03T15:31:22;12.10;95.20
7002;DHT22;3541;53.230;10.518;2023-04-03T15:33:49;12.00;94.30
7002;DHT22;3541;53.230;10.518;2023-04-03T15:36:16;12.00;92.90
7002;DHT22;3541;53.230;10.518;2023-04-03T15:38:43;11.90;92.50
7002;DHT22;3541;53.230;10.518;2023-04-03T15:41:09;12.00;92.90
7002;DHT22;3541;53.230;10.518;2023-04-03T15:43:36;12.10;92.30
7002;DHT22;3541;53.230;10.518;2023-04-03T15:46:03;11.90;92.00
7002;DHT22;3541;53.230;10.518;2023-04-03T15:48:29;12.00;91.60
7002;DHT22;3541;53.230;10.518;2023-04-03T15:50:56;12.10;91.60
7002;DHT22;3541;53.230;10.518;2023-04-03T15:53:24;12.40;91.60
7002;DHT22;3541;53.230;10.518;2023-04-03T15:55:51;12.40;90.00
7002;DHT22;3541;53.230;10.518;2023-04-03T15:58:17;12.40;88.50
7002;DHT22;3541;53.230;10.518;2023-04-03T16:00:44;12.40;89.30
7002;DHT22;3541;53.230;10.518;2023-04-03T16:03:12;12.40;88.90
7002;DHT22;3541;53.230;10.518;2023-04-03T16:05:41;12.20;88.20
7002;DHT22;3541;53.230;10.518;2023-04-03T16:08:08;12.20;87.80
7002;DHT22;3541;53.230;10.518;2023-04-03T16:10:36;12.30;86.40
7002;DHT22;3541;53.230;10.518;2023-04-03T16:13:03;12.30;86.00
7002;DHT22;3541;53.230;10.518;2023-04-03T16:15:30;12.30;88.20
7002;DHT22;3541;53.230;10.518;2023-04-03T16:17:58;12.30;88.20
7002;DHT22;3541;53.230;10.518;2023-04-03T16:20:25;12.50;88.90
7002;DHT22;3541;53.230;10.518;2023-04-03T16:22:52;12.60;87.20